RHV weather

Reid-Hillview Airport of Santa Clara County
San Jose, California, United States

Public forecast

Using degrees Fahrenheit for public forecast. Weather courtesy of forecast.io.

METAR (pilot weather report)

Report is more than 2 hours old.

Retrieved 2019/06/18 02:50 UTC (5 hours ago):

KRHV 180250Z 30006KT 10SM SKC 24/14 A2984

TAF (pilot weather forecast)

Closest forecast is Norman Y. Mineta San Jose International Airport, 5.5 nm (10.3 km) WNW. Retrieved 2019/06/18 06:39 UTC (1 hour ago):

TAF KSJC 180537Z 1806/1906 34004KT P6SM FEW070 FEW120 FM180700 14011KT P6SM FEW012 FM181800 VRB03KT P6SM FEW012 FM182100 32010KT P6SM SKC FM190500 28005KT P6SM SKC